Time;durP1;ratioP1;P1;durP2;ratioP2;P2;SDS_P1;SDS_P2;PMS_P1;PMS_P2;Temp;Humidity;BMP_temperature;BMP_pressure;BME280_temperature;BME280_humidity;BME280_pressure;Samples;Min_cycle;Max_cycle;Signal;HPM_P1;HPM_P2
2023/01/27 00:01:15;;;;;;;78.20;25.80;;;;;;;-1.33;100.00;99670.95;104614;1301;23026;-28
2023/01/27 00:03:41;;;;;;;94.80;27.80;;;;;;;-1.29;100.00;99668.70;104654;1301;23013;-28
2023/01/27 00:06:10;;;;;;;57.30;24.10;;;;;;;-1.24;100.00;99668.10;104720;1301;23039;-36
2023/01/27 00:08:36;;;;;;;107.40;36.20;;;;;;;-1.25;100.00;99658.36;104744;1298;22801;-34
2023/01/27 00:13:40;;;;;;;92.90;31.50;;;;;;;-1.26;100.00;99661.27;104640;1304;24478;-33
2023/01/27 00:16:06;;;;;;;108.60;41.30;;;;;;;-1.26;100.00;99662.16;104851;1301;22662;-29
2023/01/27 00:18:32;;;;;;;121.10;44.70;;;;;;;-1.32;100.00;99662.77;104780;1298;24250;-34
2023/01/27 00:26:15;;;;;;;91.10;32.20;;;;;;;-1.37;100.00;99660.55;104656;1305;22676;-29
2023/01/27 00:28:42;;;;;;;92.90;32.60;;;;;;;-1.38;100.00;99666.36;104696;1301;25620;-33
2023/01/27 00:33:48;;;;;;;111.70;35.20;;;;;;;-1.37;100.00;99665.10;104741;1298;22566;-30
2023/01/27 00:36:14;;;;;;;105.60;39.60;;;;;;;-1.36;100.00;99665.37;104842;1305;23039;-30
2023/01/27 00:38:41;;;;;;;99.70;36.40;;;;;;;-1.36;100.00;99664.10;104686;1299;22556;-37
2023/01/27 00:43:46;;;;;;;81.00;30.00;;;;;;;-1.37;100.00;99670.52;104719;1301;24273;-33
2023/01/27 00:46:12;;;;;;;46.40;19.60;;;;;;;-1.37;100.00;99668.90;104754;1301;24405;-30
2023/01/27 00:48:38;;;;;;;95.10;33.10;;;;;;;-1.37;100.00;99672.95;104608;1301;22565;-34
2023/01/27 00:51:04;;;;;;;100.90;32.50;;;;;;;-1.36;100.00;99669.77;104537;1305;24363;-32
2023/01/27 00:53:30;;;;;;;127.60;42.50;;;;;;;-1.36;100.00;99667.66;104776;1305;24310;-34
2023/01/27 00:55:59;;;;;;;88.60;30.30;;;;;;;-1.38;100.00;99669.20;104689;1305;22647;-35
2023/01/27 00:58:25;;;;;;;87.90;30.30;;;;;;;-1.35;100.00;99670.92;104776;1305;22682;-31
2023/01/27 01:00:55;;;;;;;114.80;36.60;;;;;;;-1.38;100.00;99671.45;104694;1302;24500;-34
2023/01/27 01:05:00;;;;;;;111.60;35.70;;;;;;;-1.34;100.00;99679.64;103806;1312;543425;-29
2023/01/27 01:07:26;;;;;;;107.30;36.90;;;;;;;-1.33;100.00;99685.99;103902;1311;23048;-38
2023/01/27 01:09:52;;;;;;;81.80;32.30;;;;;;;-1.31;100.00;99685.17;103861;1314;24299;-30
2023/01/27 01:12:18;;;;;;;94.60;32.60;;;;;;;-1.32;100.00;99687.91;103871;1315;23164;-34
2023/01/27 01:14:44;;;;;;;78.00;30.30;;;;;;;-1.33;100.00;99686.36;103798;1311;22677;-30
2023/01/27 01:17:10;;;;;;;94.70;30.70;;;;;;;-1.30;100.00;99685.48;103748;1314;23053;-32
2023/01/27 01:19:36;;;;;;;77.90;29.10;;;;;;;-1.28;100.00;99686.73;103517;1312;589292;-31
2023/01/27 01:22:02;;;;;;;89.70;33.60;;;;;;;-1.26;100.00;99687.08;103900;1313;23037;-33
2023/01/27 01:24:27;;;;;;;82.40;31.30;;;;;;;-1.26;100.00;99682.13;103970;1313;24775;-34
2023/01/27 01:26:53;;;;;;;104.60;36.90;;;;;;;-1.25;100.00;99684.73;104050;1308;24383;-30
2023/01/27 01:29:19;;;;;;;113.90;35.20;;;;;;;-1.28;100.00;99683.38;103961;1310;24258;-29
2023/01/27 01:31:45;;;;;;;97.70;34.20;;;;;;;-1.33;100.00;99685.47;104076;1308;24259;-37
2023/01/27 01:34:11;;;;;;;83.80;30.80;;;;;;;-1.31;100.00;99686.61;104103;1313;22683;-30
2023/01/27 01:36:37;;;;;;;87.80;29.90;;;;;;;-1.32;100.00;99682.81;103899;1308;22831;-34
2023/01/27 01:39:03;;;;;;;71.30;27.50;;;;;;;-1.33;100.00;99684.97;104054;1308;23039;-30
2023/01/27 01:41:29;;;;;;;72.60;23.80;;;;;;;-1.32;100.00;99683.34;104189;1311;22628;-34
2023/01/27 01:43:55;;;;;;;81.30;29.60;;;;;;;-1.31;100.00;99683.97;104322;1311;22663;-32
2023/01/27 01:46:21;;;;;;;73.60;27.10;;;;;;;-1.35;100.00;99679.12;104211;1308;23037;-33
2023/01/27 01:48:55;;;;;;;82.90;33.00;;;;;;;-1.41;100.00;99675.55;104263;1308;24324;-29
2023/01/27 01:51:31;;;;;;;84.80;32.50;;;;;;;-1.41;100.00;99673.06;104253;1311;23102;-29
2023/01/27 01:54:18;;;;;;;74.50;27.60;;;;;;;-1.44;100.00;99668.94;104162;1308;23037;-34
2023/01/27 01:56:47;;;;;;;74.70;27.80;;;;;;;-1.41;100.00;99671.64;103966;1308;23306;-30
2023/01/27 01:59:18;;;;;;;93.40;31.90;;;;;;;-1.40;100.00;99674.95;104120;1304;24282;-30
2023/01/27 02:01:44;;;;;;;68.90;24.60;;;;;;;-1.41;100.00;99672.38;104161;1308;22672;-36
2023/01/27 02:04:14;;;;;;;106.00;30.30;;;;;;;-1.42;100.00;99669.45;104055;1308;22824;-30
2023/01/27 02:06:42;;;;;;;73.20;28.70;;;;;;;-1.37;100.00;99668.10;104095;1308;23163;-34
2023/01/27 02:09:08;;;;;;;83.80;30.70;;;;;;;-1.35;100.00;99668.11;104171;1308;24406;-34
2023/01/27 02:11:34;;;;;;;89.20;30.10;;;;;;;-1.32;100.00;99664.55;104084;1305;23171;-33
2023/01/27 02:14:00;;;;;;;57.90;25.20;;;;;;;-1.33;100.00;99660.17;104130;1304;25346;-32
2023/01/27 02:16:26;;;;;;;90.50;31.80;;;;;;;-1.33;100.00;99655.66;104077;1308;22976;-34
2023/01/27 02:18:52;;;;;;;90.10;30.60;;;;;;;-1.30;100.00;99657.21;104255;1304;22583;-32
2023/01/27 02:21:18;;;;;;;76.70;30.90;;;;;;;-1.33;100.00;99657.60;104355;1308;23047;-29
2023/01/27 02:23:59;;;;;;;78.70;28.30;;;;;;;-1.34;100.00;99655.58;104071;1308;24359;-33
2023/01/27 02:26:29;;;;;;;66.70;27.50;;;;;;;-1.34;100.00;99658.70;104187;1311;25517;-34
2023/01/27 02:28:55;;;;;;;69.20;25.30;;;;;;;-1.33;100.00;99661.26;104154;1308;22502;-34
2023/01/27 02:31:21;;;;;;;77.40;29.60;;;;;;;-1.32;100.00;99660.71;104000;1308;24300;-35
2023/01/27 02:33:48;;;;;;;66.40;24.70;;;;;;;-1.34;100.00;99662.93;104262;1308;22684;-29
2023/01/27 02:36:15;;;;;;;89.60;32.00;;;;;;;-1.33;100.00;99656.70;104040;1308;23147;-33
2023/01/27 02:38:51;;;;;;;89.90;29.50;;;;;;;-1.35;100.00;99660.17;104023;1305;22569;-29
2023/01/27 02:41:25;;;;;;;82.90;28.30;;;;;;;-1.37;100.00;99660.20;104292;1308;22578;-29
2023/01/27 02:43:51;;;;;;;89.70;30.30;;;;;;;-1.39;100.00;99659.05;104053;1305;24285;-34
2023/01/27 02:46:17;;;;;;;95.40;34.80;;;;;;;-1.38;100.00;99663.02;103993;1310;22541;-32
2023/01/27 02:48:43;;;;;;;80.40;30.90;;;;;;;-1.43;100.00;99663.40;104351;1308;23010;-33
2023/01/27 02:51:09;;;;;;;100.20;33.00;;;;;;;-1.44;100.00;99662.37;104005;1308;24290;-33
2023/01/27 02:53:35;;;;;;;81.80;30.90;;;;;;;-1.48;100.00;99659.04;104089;1308;25116;-29
2023/01/27 02:56:01;;;;;;;76.30;29.20;;;;;;;-1.47;100.00;99656.17;104169;1308;22657;-29
2023/01/27 02:58:26;;;;;;;81.30;29.80;;;;;;;-1.47;100.00;99652.95;104137;1311;24294;-33
2023/01/27 03:00:52;;;;;;;98.70;32.50;;;;;;;-1.48;100.00;99650.73;104249;1310;22832;-32
2023/01/27 03:03:18;;;;;;;87.30;32.50;;;;;;;-1.48;100.00;99653.38;104194;1307;22966;-29
2023/01/27 03:05:44;;;;;;;78.20;32.50;;;;;;;-1.47;100.00;99651.71;104272;1308;22790;-29
2023/01/27 03:08:10;;;;;;;85.00;27.40;;;;;;;-1.45;100.00;99652.09;104230;1308;22792;-33
2023/01/27 03:10:36;;;;;;;73.70;27.40;;;;;;;-1.43;100.00;99649.73;104102;1308;22802;-32
2023/01/27 03:13:03;;;;;;;78.00;27.00;;;;;;;-1.46;100.00;99653.08;104358;1311;22665;-30
2023/01/27 03:18:12;;;;;;;78.10;28.30;;;;;;;-1.47;100.00;99652.27;103977;1311;23143;-29
2023/01/27 03:20:39;;;;;;;55.10;21.80;;;;;;;-1.45;100.00;99650.16;104153;1305;24248;-34
2023/01/27 03:23:05;;;;;;;68.50;26.80;;;;;;;-1.49;100.00;99650.80;104359;1307;22938;-34
2023/01/27 03:25:31;;;;;;;73.90;27.20;;;;;;;-1.48;100.00;99654.42;104101;1308;24331;-28
2023/01/27 03:27:56;;;;;;;78.20;27.40;;;;;;;-1.49;100.00;99656.79;104108;1308;22686;-29
2023/01/27 03:30:22;;;;;;;64.90;24.70;;;;;;;-1.47;100.00;99658.93;104345;1308;22573;-30
2023/01/27 03:32:48;;;;;;;63.90;25.70;;;;;;;-1.47;100.00;99656.63;104140;1308;22582;-34
2023/01/27 03:35:14;;;;;;;65.00;21.70;;;;;;;-1.45;100.00;99652.45;103996;1310;23046;-35
2023/01/27 03:48:12;;;;;;;44.30;18.70;;;;;;;-1.40;100.00;99662.14;104140;1309;23177;-35
2023/01/27 03:50:42;;;;;;;60.40;24.70;;;;;;;-1.40;100.00;99662.33;104222;1308;22666;-34
2023/01/27 03:53:08;;;;;;;67.20;24.40;;;;;;;-1.39;100.00;99664.20;104242;1311;22581;-30
2023/01/27 03:55:35;;;;;;;57.80;22.90;;;;;;;-1.44;100.00;99667.54;104245;1311;23164;-31
2023/01/27 04:00:39;;;;;;;68.00;26.70;;;;;;;-1.40;100.00;99672.13;104055;1308;22669;-30
2023/01/27 04:08:21;;;;;;;69.80;26.00;;;;;;;-1.38;100.00;99676.27;104102;1306;23173;-36
2023/01/27 04:11:53;;;;;;;65.90;25.90;;;;;;;-1.39;100.00;99674.16;104322;1310;24352;-34
2023/01/27 04:13:33;;;;;;;53.70;22.80;;;;;;;-1.35;100.00;99674.09;104215;1308;24396;-31
2023/01/27 04:15:58;;;;;;;65.90;25.00;;;;;;;-1.35;100.00;99671.20;104149;1310;24685;-34
2023/01/27 04:18:24;;;;;;;51.90;20.30;;;;;;;-1.33;100.00;99671.06;104137;1307;24493;-29
2023/01/27 04:20:50;;;;;;;49.60;21.60;;;;;;;-1.30;100.00;99670.36;104203;1310;24440;-29
2023/01/27 04:23:15;;;;;;;57.60;24.80;;;;;;;-1.27;100.00;99670.63;104115;1310;23173;-37
2023/01/27 04:25:41;;;;;;;83.10;30.80;;;;;;;-1.24;100.00;99674.48;104194;1308;22935;-29
2023/01/27 04:28:07;;;;;;;88.00;32.10;;;;;;;-1.29;100.00;99680.06;104237;1310;25394;-29
2023/01/27 04:30:33;;;;;;;64.00;22.30;;;;;;;-1.26;100.00;99680.09;104045;1305;22673;-31
2023/01/27 04:33:01;;;;;;;70.90;26.80;;;;;;;-1.37;100.00;99681.98;104117;1310;22628;-33
2023/01/27 04:35:27;;;;;;;51.50;19.90;;;;;;;-1.35;100.00;99682.28;104315;1308;23049;-34
2023/01/27 05:16:58;;;;;;;80.70;30.30;;;;;;;-1.69;100.00;99706.54;104571;1299;557661;-34
2023/01/27 05:19:24;;;;;;;67.30;28.20;;;;;;;-1.67;100.00;99708.36;104540;1289;388250;-30
2023/01/27 05:21:50;;;;;;;65.10;20.70;;;;;;;-1.67;100.00;99710.61;104887;1295;23047;-30
2023/01/27 05:24:15;;;;;;;56.40;22.40;;;;;;;-1.66;100.00;99715.46;104896;1292;22829;-29
2023/01/27 05:26:41;;;;;;;65.30;22.00;;;;;;;-1.63;100.00;99716.34;104861;1302;22669;-28
2023/01/27 05:29:07;;;;;;;73.50;25.60;;;;;;;-1.62;100.00;99721.55;104754;1288;22514;-29
2023/01/27 05:31:33;;;;;;;64.50;24.10;;;;;;;-1.63;100.00;99721.23;104822;1292;22573;-34
2023/01/27 05:34:01;;;;;;;68.40;23.90;;;;;;;-1.66;100.00;99721.27;104835;1302;22569;-34
2023/01/27 05:36:27;;;;;;;51.00;21.00;;;;;;;-1.67;100.00;99727.52;104801;1293;22793;-33
2023/01/27 05:38:53;;;;;;;60.10;24.50;;;;;;;-1.65;100.00;99731.23;104886;1295;22644;-29
2023/01/27 05:41:19;;;;;;;44.90;19.30;;;;;;;-1.69;100.00;99734.16;104815;1292;23185;-33
2023/01/27 05:43:46;;;;;;;63.30;22.20;;;;;;;-1.70;100.00;99734.85;104809;1289;23028;-34
2023/01/27 05:46:14;;;;;;;54.20;18.10;;;;;;;-1.66;100.00;99735.33;104974;1302;22624;-30
2023/01/27 05:48:41;;;;;;;50.80;19.50;;;;;;;-1.68;100.00;99731.56;104908;1302;22670;-33
2023/01/27 05:51:07;;;;;;;61.70;27.30;;;;;;;-1.66;100.00;99731.45;104860;1293;22798;-29
2023/01/27 05:53:33;;;;;;;53.70;21.30;;;;;;;-1.62;100.00;99732.05;104850;1302;23023;-29
2023/01/27 05:56:00;;;;;;;41.30;16.80;;;;;;;-1.64;100.00;99731.50;104797;1302;22656;-29
2023/01/27 05:58:26;;;;;;;59.90;21.50;;;;;;;-1.67;100.00;99736.80;104913;1299;22773;-30
2023/01/27 06:00:52;;;;;;;43.10;18.40;;;;;;;-1.65;100.00;99738.77;104979;1298;22575;-38
2023/01/27 06:03:19;;;;;;;56.60;21.60;;;;;;;-1.74;100.00;99741.36;104952;1292;22792;-29
2023/01/27 06:05:49;;;;;;;59.00;19.40;;;;;;;-1.70;100.00;99739.13;104963;1289;22823;-32
2023/01/27 06:08:14;;;;;;;49.30;20.80;;;;;;;-1.68;100.00;99742.84;104854;1302;24417;-29
2023/01/27 06:10:40;;;;;;;48.20;19.00;;;;;;;-1.69;100.00;99744.33;104790;1302;22822;-30
2023/01/27 06:13:06;;;;;;;55.00;18.20;;;;;;;-1.69;100.00;99749.05;104833;1292;22815;-36
2023/01/27 06:15:32;;;;;;;57.80;20.50;;;;;;;-1.72;100.00;99744.73;104827;1302;22790;-35
2023/01/27 06:17:57;;;;;;;45.50;18.10;;;;;;;-1.74;100.00;99744.14;104907;1298;23032;-35
2023/01/27 06:20:24;;;;;;;56.50;17.20;;;;;;;-1.72;100.00;99746.99;104825;1292;23141;-34
2023/01/27 06:22:50;;;;;;;52.00;20.60;;;;;;;-1.71;100.00;99753.21;104947;1292;22659;-35
2023/01/27 06:25:16;;;;;;;63.90;21.90;;;;;;;-1.66;100.00;99750.61;104868;1292;22802;-34
2023/01/27 06:27:41;;;;;;;45.90;18.30;;;;;;;-1.64;100.00;99748.34;104731;1292;24277;-30
2023/01/27 06:30:07;;;;;;;42.80;18.20;;;;;;;-1.67;100.00;99749.11;104696;1302;23001;-30
2023/01/27 06:32:36;;;;;;;41.90;19.40;;;;;;;-1.64;100.00;99749.23;104784;1302;22656;-34
2023/01/27 06:35:02;;;;;;;39.80;17.60;;;;;;;-1.64;100.00;99743.77;104902;1292;22997;-33
2023/01/27 06:37:29;;;;;;;38.50;16.10;;;;;;;-1.64;100.00;99742.02;104705;1302;22806;-30
2023/01/27 06:39:54;;;;;;;41.50;17.50;;;;;;;-1.55;100.00;99739.80;104794;1291;22792;-34
2023/01/27 06:42:20;;;;;;;45.30;16.30;;;;;;;-1.62;100.00;99738.02;104627;1292;22810;-34
2023/01/27 06:44:46;;;;;;;50.70;19.60;;;;;;;-1.57;100.00;99745.73;104855;1292;24320;-30
2023/01/27 06:47:11;;;;;;;56.70;20.90;;;;;;;-1.57;100.00;99747.69;104783;1293;23235;-30
2023/01/27 06:49:37;;;;;;;59.10;21.20;;;;;;;-1.56;100.00;99750.19;104611;1292;22786;-30
2023/01/27 06:52:03;;;;;;;49.30;19.60;;;;;;;-1.51;100.00;99748.83;104802;1292;23026;-36
2023/01/27 06:54:29;;;;;;;53.80;21.30;;;;;;;-1.50;100.00;99749.25;104843;1302;22566;-33
2023/01/27 06:56:55;;;;;;;45.50;19.20;;;;;;;-1.55;100.00;99754.88;104825;1292;22641;-34
2023/01/27 06:59:21;;;;;;;62.70;29.00;;;;;;;-1.56;100.00;99756.05;104778;1292;22575;-34
2023/01/27 07:01:46;;;;;;;54.30;25.40;;;;;;;-1.56;100.00;99755.63;104818;1302;22660;-33
2023/01/27 07:04:12;;;;;;;70.90;31.10;;;;;;;-1.58;100.00;99755.27;104749;1292;22802;-30
2023/01/27 07:06:38;;;;;;;69.70;27.80;;;;;;;-1.54;100.00;99760.81;104652;1292;22639;-31
2023/01/27 07:09:04;;;;;;;49.70;20.70;;;;;;;-1.55;100.00;99763.13;104776;1302;23160;-38
2023/01/27 07:11:29;;;;;;;51.80;19.20;;;;;;;-1.59;100.00;99765.71;104920;1292;22678;-34
2023/01/27 07:13:55;;;;;;;64.00;25.40;;;;;;;-1.58;100.00;99766.54;104666;1302;22566;-31
2023/01/27 07:16:21;;;;;;;50.60;20.30;;;;;;;-1.55;100.00;99767.91;104760;1302;22620;-35
2023/01/27 07:18:47;;;;;;;49.20;17.20;;;;;;;-1.50;100.00;99770.71;104818;1292;23183;-34
2023/01/27 07:21:13;;;;;;;59.10;22.80;;;;;;;-1.50;100.00;99768.72;104793;1291;22572;-31
2023/01/27 07:23:38;;;;;;;54.70;22.10;;;;;;;-1.41;100.00;99771.98;104978;1283;23039;-30
2023/01/27 07:26:04;;;;;;;51.10;20.50;;;;;;;-1.40;100.00;99776.79;104783;1283;22693;-30
2023/01/27 07:28:29;;;;;;;57.00;22.00;;;;;;;-1.44;100.00;99778.88;104921;1292;22941;-30
2023/01/27 07:30:59;;;;;;;63.40;21.50;;;;;;;-1.49;100.00;99774.46;104845;1302;22639;-31
2023/01/27 07:33:25;;;;;;;38.50;17.20;;;;;;;-1.46;100.00;99776.54;104935;1283;23165;-35
2023/01/27 07:35:51;;;;;;;35.50;13.50;;;;;;;-1.47;100.00;99779.42;104887;1302;22675;-30
2023/01/27 07:38:17;;;;;;;35.10;16.20;;;;;;;-1.42;100.00;99778.67;104866;1299;22773;-33
2023/01/27 07:40:43;;;;;;;42.20;17.80;;;;;;;-1.41;100.00;99780.38;104911;1302;22837;-30
2023/01/27 07:43:08;;;;;;;52.90;20.20;;;;;;;-1.38;100.00;99784.73;104791;1292;22594;-31
2023/01/27 07:45:34;;;;;;;54.50;21.00;;;;;;;-1.38;100.00;99779.31;104849;1292;22585;-31
2023/01/27 07:48:05;;;;;;;62.70;23.00;;;;;;;-1.33;100.00;99778.77;104779;1292;22576;-35
2023/01/27 07:50:31;;;;;;;54.20;21.50;;;;;;;-1.33;100.00;99777.36;104947;1292;22558;-29
2023/01/27 07:53:00;;;;;;;64.90;22.50;;;;;;;-1.32;100.00;99785.72;104844;1288;23923;-33
2023/01/27 07:55:26;;;;;;;55.00;20.40;;;;;;;-1.37;100.00;99784.14;104828;1302;22658;-31
2023/01/27 07:57:53;;;;;;;44.40;17.90;;;;;;;-1.34;100.00;99787.29;104775;1293;22573;-32
2023/01/27 08:00:20;;;;;;;54.50;23.60;;;;;;;-1.23;100.00;99790.15;104881;1292;22774;-30
2023/01/27 08:02:52;;;;;;;42.10;17.50;;;;;;;-1.19;100.00;99796.66;104788;1279;22795;-30
2023/01/27 08:05:19;;;;;;;49.10;22.10;;;;;;;-1.18;100.00;99792.73;104825;1288;22660;-29
2023/01/27 08:07:45;;;;;;;48.60;21.40;;;;;;;-1.13;100.00;99792.24;104781;1292;22672;-30
2023/01/27 08:10:11;;;;;;;72.00;27.60;;;;;;;-1.21;100.00;99795.13;104848;1288;24414;-30
2023/01/27 08:12:37;;;;;;;60.30;24.20;;;;;;;-1.18;100.00;99795.57;104772;1292;25371;-35
2023/01/27 08:15:04;;;;;;;65.20;24.40;;;;;;;-1.16;100.00;99798.06;104836;1298;23024;-31
2023/01/27 08:17:30;;;;;;;47.30;19.50;;;;;;;-1.10;100.00;99805.57;104893;1301;23825;-30
2023/01/27 08:19:55;;;;;;;98.00;38.70;;;;;;;-1.06;100.00;99805.09;104699;1293;22755;-40
2023/01/27 08:22:24;;;;;;;111.50;39.70;;;;;;;-1.07;100.00;99804.48;104841;1289;22807;-30
2023/01/27 08:24:50;;;;;;;114.20;37.80;;;;;;;-1.04;100.00;99803.71;104768;1289;22676;-30
2023/01/27 08:27:16;;;;;;;58.00;22.30;;;;;;;-1.09;100.00;99809.03;104857;1292;22829;-31
2023/01/27 08:29:42;;;;;;;74.50;25.60;;;;;;;-1.10;100.00;99802.20;104845;1292;22757;-32
2023/01/27 08:32:09;;;;;;;53.20;21.30;;;;;;;-1.02;100.00;99793.49;104755;1302;23163;-35
2023/01/27 08:34:36;;;;;;;71.30;26.80;;;;;;;-1.00;100.00;99793.53;104829;1292;22676;-30
2023/01/27 08:37:02;;;;;;;76.10;27.80;;;;;;;-0.99;100.00;99796.63;104741;1279;22799;-30
2023/01/27 08:39:27;;;;;;;65.20;26.20;;;;;;;-0.99;100.00;99802.76;104939;1292;22814;-31
2023/01/27 08:41:53;;;;;;;43.80;18.90;;;;;;;-0.95;100.00;99799.32;104738;1302;23171;-31
2023/01/27 08:44:19;;;;;;;89.00;33.70;;;;;;;-0.84;100.00;99798.16;104713;1302;22787;-34
2023/01/27 08:46:45;;;;;;;68.20;26.90;;;;;;;-0.80;100.00;99797.55;104666;1291;22810;-30
2023/01/27 08:49:13;;;;;;;68.20;26.30;;;;;;;-0.78;100.00;99798.98;104746;1289;22567;-32
2023/01/27 08:51:39;;;;;;;66.90;28.10;;;;;;;-0.79;100.00;99801.69;104721;1292;22801;-36
2023/01/27 08:54:05;;;;;;;53.90;22.20;;;;;;;-0.80;100.00;99802.30;104708;1302;22619;-30
2023/01/27 08:56:31;;;;;;;55.60;23.10;;;;;;;-0.78;100.00;99801.62;104611;1295;22683;-31
2023/01/27 08:58:58;;;;;;;49.80;22.30;;;;;;;-0.66;100.00;99801.08;104768;1292;22782;-35
2023/01/27 09:01:24;;;;;;;46.70;20.60;;;;;;;-0.68;100.00;99799.09;104701;1302;22833;-31
2023/01/27 09:03:53;;;;;;;61.10;24.50;;;;;;;-0.78;100.00;99803.36;104912;1289;22660;-31
2023/01/27 09:06:20;;;;;;;86.10;32.10;;;;;;;-0.61;100.00;99802.08;104896;1292;22802;-34
2023/01/27 09:09:07;;;;;;;48.20;20.70;;;;;;;-0.64;100.00;99801.93;104744;1292;22551;-34
2023/01/27 09:11:32;;;;;;;56.00;21.50;;;;;;;-0.52;100.00;99802.30;104782;1292;23172;-35
2023/01/27 09:13:57;;;;;;;46.10;18.70;;;;;;;-0.47;100.00;99804.20;104787;1291;24251;-33
2023/01/27 09:16:23;;;;;;;39.60;15.60;;;;;;;-0.30;100.00;99804.50;104678;1288;25374;-31
2023/01/27 09:18:49;;;;;;;61.50;20.90;;;;;;;-0.17;99.66;99805.59;104712;1292;22795;-30
2023/01/27 09:21:14;;;;;;;54.80;22.70;;;;;;;-0.03;100.00;99804.55;104801;1289;22657;-30
2023/01/27 09:23:40;;;;;;;51.70;20.50;;;;;;;0.00;99.89;99807.61;104795;1299;24369;-30
2023/01/27 09:26:06;;;;;;;61.10;24.30;;;;;;;0.11;99.35;99807.64;104796;1292;22744;-31
2023/01/27 09:28:31;;;;;;;60.00;23.30;;;;;;;0.22;97.67;99806.61;104778;1292;22886;-35
2023/01/27 09:30:57;;;;;;;42.90;19.40;;;;;;;0.39;97.08;99805.95;104904;1292;22669;-29
2023/01/27 09:33:24;;;;;;;61.40;20.10;;;;;;;0.61;95.22;99805.98;104828;1291;22508;-32
2023/01/27 09:36:00;;;;;;;43.20;18.20;;;;;;;0.95;93.96;99805.90;104771;1302;23021;-30
2023/01/27 09:38:26;;;;;;;106.30;34.30;;;;;;;1.45;92.62;99799.11;104813;1292;22582;-34
2023/01/27 09:41:16;;;;;;;23.10;11.50;;;;;;;1.87;91.80;99802.80;104744;1291;22785;-34
2023/01/27 09:43:59;;;;;;;40.10;18.20;;;;;;;2.30;92.90;99805.58;104734;1291;22799;-30
2023/01/27 09:46:35;;;;;;;48.70;21.10;;;;;;;2.52;85.83;99805.63;104884;1292;22848;-34
2023/01/27 09:49:25;;;;;;;44.20;19.40;;;;;;;2.54;82.68;99807.25;104767;1288;22566;-34
2023/01/27 09:52:17;;;;;;;42.90;17.80;;;;;;;2.49;82.76;99814.02;104874;1292;22951;-33
2023/01/27 09:54:58;;;;;;;42.00;18.50;;;;;;;2.69;79.35;99811.72;104904;1292;22703;-35
2023/01/27 09:57:44;;;;;;;37.90;17.30;;;;;;;2.88;79.34;99813.61;104830;1292;23046;-35
2023/01/27 10:00:22;;;;;;;34.30;17.30;;;;;;;3.34;84.79;99815.60;104766;1302;23288;-35
2023/01/27 10:03:11;;;;;;;29.30;13.60;;;;;;;3.39;82.11;99812.44;104871;1302;25313;-34
2023/01/27 10:05:53;;;;;;;32.90;14.40;;;;;;;2.83;76.86;99816.16;104835;1298;22653;-35
2023/01/27 10:08:37;;;;;;;28.90;13.50;;;;;;;3.03;75.26;99817.41;104806;1295;25649;-31
2023/01/27 10:11:24;;;;;;;28.80;10.80;;;;;;;2.91;71.85;99815.41;104780;1302;24076;-35
2023/01/27 10:14:22;;;;;;;17.00;9.50;;;;;;;2.67;70.58;99820.22;104848;1292;22663;-31
2023/01/27 10:17:11;;;;;;;22.60;11.60;;;;;;;2.68;67.50;99817.25;104676;1301;25451;-35
2023/01/27 10:19:57;;;;;;;12.80;7.60;;;;;;;2.43;65.63;99825.70;104847;1302;22667;-31
2023/01/27 10:22:38;;;;;;;13.20;8.20;;;;;;;2.04;66.39;99825.15;104771;1292;22655;-30
2023/01/27 10:27:57;;;;;;;20.50;10.70;;;;;;;1.83;69.06;99819.52;103495;1305;544894;-31
2023/01/27 10:30:33;;;;;;;20.00;10.30;;;;;;;2.06;68.13;99815.09;103684;1311;22805;-31
2023/01/27 10:33:06;;;;;;;15.90;8.00;;;;;;;2.16;66.76;99820.55;103683;1313;22637;-35
2023/01/27 10:35:39;;;;;;;46.70;16.30;;;;;;;1.61;68.08;99818.77;103507;1314;23007;-30
2023/01/27 10:38:13;;;;;;;21.10;7.60;;;;;;;1.48;68.95;99817.86;103746;1311;22581;-32
2023/01/27 10:41:00;;;;;;;29.40;12.90;;;;;;;1.59;69.55;99822.84;103345;1298;528068;-34
2023/01/27 10:43:50;;;;;;;33.50;11.40;;;;;;;1.33;69.90;99821.09;103830;1305;23294;-28
2023/01/27 10:46:33;;;;;;;56.90;21.30;;;;;;;1.29;74.18;99820.23;103899;1301;22802;-35
2023/01/27 10:49:09;;;;;;;42.80;18.80;;;;;;;1.15;78.16;99826.28;103817;1298;22576;-33
2023/01/27 10:51:41;;;;;;;79.00;28.70;;;;;;;1.07;79.61;99826.07;103891;1302;25320;-28
2023/01/27 10:54:11;;;;;;;56.80;22.40;;;;;;;1.00;81.87;99822.05;103924;1308;22673;-32
2023/01/27 10:56:55;;;;;;;64.10;23.30;;;;;;;0.97;83.54;99823.02;103804;1301;22785;-34
2023/01/27 10:59:36;;;;;;;58.30;25.40;;;;;;;0.88;85.49;99822.61;103778;1302;22812;-34
2023/01/27 11:02:13;;;;;;;41.00;18.00;;;;;;;1.09;84.62;99819.58;104022;1301;22798;-29
2023/01/27 11:04:47;;;;;;;33.40;14.60;;;;;;;1.36;81.98;99817.52;103948;1301;22666;-34
2023/01/27 11:46:22;;;;;;;40.50;22.10;;;;;;;1.03;75.01;99801.34;104471;1286;557597;-36
2023/01/27 11:48:52;;;;;;;22.80;13.00;;;;;;;1.02;74.38;99796.16;104228;1303;471333;-29
2023/01/27 11:51:22;;;;;;;29.40;11.90;;;;;;;1.03;74.36;99795.73;104447;1304;23057;-33
2023/01/27 11:54:11;;;;;;;24.20;12.80;;;;;;;0.98;74.89;99798.09;104603;1299;23019;-31
2023/01/27 11:56:36;;;;;;;28.60;12.30;;;;;;;0.84;74.40;99795.83;104556;1304;22618;-30
2023/01/27 11:59:04;;;;;;;30.20;13.10;;;;;;;0.71;74.60;99797.64;104713;1300;23168;-30
2023/01/27 12:01:45;;;;;;;60.40;19.10;;;;;;;0.80;74.88;99795.13;104524;1302;22682;-33
2023/01/27 12:04:45;;;;;;;157.80;56.20;;;;;;;0.74;73.65;99793.14;104515;1293;22803;-30
2023/01/27 12:07:27;;;;;;;34.80;15.80;;;;;;;0.52;74.91;99791.70;104531;1304;22671;-35
2023/01/27 12:09:53;;;;;;;24.50;11.90;;;;;;;0.39;76.54;99787.14;104664;1299;23028;-30
2023/01/27 12:12:23;;;;;;;28.00;13.00;;;;;;;0.51;77.07;99788.63;104735;1292;24284;-30
2023/01/27 12:14:57;;;;;;;34.10;13.70;;;;;;;0.56;78.02;99785.43;104538;1304;22677;-30
2023/01/27 12:17:34;;;;;;;;;;;;;;;0.60;79.66;99786.69;104713;1304;25401;-30
2023/01/27 12:20:01;;;;;;;;;;;;;;;0.54;79.36;99789.43;104493;1301;22799;-30
2023/01/27 12:22:32;;;;;;;;;;;;;;;0.57;78.70;99793.27;104543;1304;24378;-34
2023/01/27 12:25:00;;;;;;;26.70;11.60;;;;;;;0.42;78.70;99793.97;104526;1302;22669;-30
2023/01/27 12:27:27;;;;;;;29.30;11.90;;;;;;;0.49;79.63;99793.89;104596;1303;22573;-33
2023/01/27 12:29:55;;;;;;;21.10;10.70;;;;;;;0.47;79.22;99795.70;104559;1302;22812;-32
2023/01/27 12:32:27;;;;;;;31.40;13.10;;;;;;;0.53;78.78;99797.84;104504;1299;22581;-33
2023/01/27 12:34:55;;;;;;;34.40;14.40;;;;;;;0.37;79.17;99800.11;104613;1302;22822;-33
2023/01/27 12:37:30;;;;;;;38.30;12.50;;;;;;;0.40;80.42;99801.51;104602;1298;23920;-29
2023/01/27 12:40:02;;;;;;;46.70;19.40;;;;;;;0.45;81.80;99795.66;104611;1298;22811;-37
2023/01/27 12:42:36;;;;;;;28.70;12.90;;;;;;;0.60;80.15;99799.36;104701;1293;22673;-34
2023/01/27 12:45:22;;;;;;;38.20;16.50;;;;;;;0.37;80.23;99797.35;104573;1301;22682;-29
2023/01/27 12:48:15;;;;;;;38.90;16.80;;;;;;;0.39;81.16;99803.65;104448;1299;24408;-30
2023/01/27 12:50:53;;;;;;;37.10;14.80;;;;;;;0.42;81.00;99797.78;104601;1301;22947;-35
2023/01/27 12:53:26;;;;;;;35.70;15.80;;;;;;;0.44;79.81;99794.27;104614;1295;22669;-30
2023/01/27 12:56:00;;;;;;;51.00;15.40;;;;;;;0.41;79.24;99801.56;104542;1289;25323;-34
2023/01/27 12:58:44;;;;;;;26.20;11.70;;;;;;;0.20;80.99;99804.27;104542;1290;22634;-30
2023/01/27 13:01:22;;;;;;;39.60;14.20;;;;;;;0.13;82.64;99805.02;104697;1295;23039;-35
2023/01/27 13:03:53;;;;;;;30.60;14.80;;;;;;;0.26;82.48;99802.07;104548;1282;22565;-34
2023/01/27 13:06:28;;;;;;;36.00;15.90;;;;;;;0.31;81.07;99800.65;104556;1302;24274;-30
2023/01/27 13:08:54;;;;;;;43.50;15.90;;;;;;;0.27;81.12;99803.56;104591;1291;24215;-31
2023/01/27 13:11:29;;;;;;;31.70;15.60;;;;;;;0.21;81.62;99804.43;104640;1295;22805;-31
2023/01/27 13:13:55;;;;;;;36.70;15.20;;;;;;;0.26;81.83;99804.88;104667;1290;22822;-34